메인 페이지
METAR-TAF:

METAR-TAF

공항 :

Knox County Regional Airport

Rockland, 메인, 미국

위도: 44-04N, 경도: 069-06W, 고도: 17m

현재 날씨관측

예보는 13분 전, 08:56시(UTC)에 발표되었습니다.
3kt
온도 8°C
습도 100%
기압 1005 hPa
시정: 2.0km
고도 200ft 상공 구름 조금
박무

METAR: KRKD 040856Z AUTO 26003KT 1 1/4SM BR FEW002 08/08 A2969 RMK AO2 VIS 1/2V5 SLP055 T00830078 51010

시각: 05:09 (09:09 UTC)

예보

예보는 3 시간 47분 전, 05:22시(UTC)에 발표되었습니다.
예보 대상 시간: 04일 06시부터 05일 06시까지 (UTC)
여러 방향의 바람 3kt
시정: 10km
고도 25000ft 상공 구름 조금
04일 1600시부터 (UTC)
남서8kt, 순간 최대 풍속 15kt
시정: 10km
고도 10000ft 상공 구름 보통
05일 0000시부터 (UTC)
여러 방향의 바람 3kt
시정: 10km
맑음

TAF: KRKD 040522Z 0406/0506 VRB03KT P6SM FEW250 FM041600 22008G15KT P6SM SCT100 FM050000 VRB03KT P6SM SKC

4,000개 이상의 공항 관측 자료 및 예보 (METAR 및 TAF 보고).

지도상에서 검색 가능한 기상관측소가 노란 점과 빨간 점으로 표시되어 있습니다.

기상관측소 명을 보려면 표시 위로 마우스를 이동하세요.

날씨 관측과 예보를 보려면 클릭하세요.

지도 변경 : 확대하려면 엑스 표시가 있는 녹색 버튼, 축소하려면 빼기 표시가 있는 녹색 버튼, 다음 페이지의 지도를 보려면 녹색 화살표를 클릭하세요.


METAR-TAF: